createdAt,value
2022-08-17T00:00:43.957Z,11.00
2022-08-17T00:03:22.431Z,11.88
2022-08-17T00:05:54.375Z,12.20
2022-08-17T00:08:24.716Z,11.85
2022-08-17T00:10:53.834Z,12.10
2022-08-17T00:13:25.754Z,11.68
2022-08-17T00:15:57.864Z,12.27
2022-08-17T00:19:01.792Z,11.63
2022-08-17T00:21:23.840Z,13.00
2022-08-17T00:23:56.221Z,14.13
2022-08-17T00:26:43.464Z,13.70
2022-08-17T00:29:16.452Z,15.60
2022-08-17T00:31:48.669Z,16.83
2022-08-17T00:34:19.214Z,15.98
2022-08-17T00:36:48.733Z,15.48
2022-08-17T00:39:16.851Z,15.52
2022-08-17T00:41:45.007Z,13.73
2022-08-17T00:44:13.297Z,13.90
2022-08-17T00:46:43.602Z,18.20
2022-08-17T00:49:15.773Z,19.20
2022-08-17T00:51:47.430Z,18.57
2022-08-17T00:54:23.471Z,21.48
2022-08-17T00:56:55.083Z,19.33
2022-08-17T00:59:30.865Z,17.40
2022-08-17T01:02:00.046Z,20.08
2022-08-17T01:04:32.922Z,19.70
2022-08-17T01:07:02.771Z,17.88
2022-08-17T01:09:33.402Z,18.20
2022-08-17T01:12:01.904Z,17.10
2022-08-17T01:14:33.209Z,16.38
2022-08-17T01:17:03.984Z,16.92
2022-08-17T01:19:35.831Z,17.77
2022-08-17T01:22:18.647Z,17.10
2022-08-17T01:24:51.123Z,18.33
2022-08-17T01:27:21.051Z,20.55
2022-08-17T01:29:52.545Z,18.40
2022-08-17T01:32:21.460Z,19.75
2022-08-17T01:34:50.915Z,20.23
2022-08-17T01:37:22.306Z,18.38
2022-08-17T01:39:55.128Z,19.97
2022-08-17T01:42:27.653Z,18.17
2022-08-17T01:45:02.960Z,16.83
2022-08-17T01:47:36.003Z,14.30
2022-08-17T01:50:10.688Z,14.87
2022-08-17T01:52:43.605Z,16.60
2022-08-17T01:55:12.392Z,15.98
2022-08-17T01:57:45.475Z,17.67
2022-08-17T02:00:15.169Z,18.15
2022-08-17T02:02:45.927Z,15.93
2022-08-17T02:05:14.939Z,17.20
2022-08-17T02:07:59.433Z,16.60
2022-08-17T02:10:33.750Z,17.03
2022-08-17T02:13:03.340Z,15.50
2022-08-17T02:15:34.737Z,17.53
2022-08-17T02:18:03.145Z,16.37
2022-08-17T02:20:41.934Z,15.53
2022-08-17T02:23:14.412Z,13.87
2022-08-17T02:25:44.917Z,13.97
2022-08-17T02:28:16.592Z,14.15
2022-08-17T02:30:59.554Z,13.53
2022-08-17T02:33:42.110Z,13.90
2022-08-17T02:36:14.767Z,12.90
2022-08-17T02:38:44.639Z,13.00
2022-08-17T02:41:15.481Z,13.70
2022-08-17T02:43:46.655Z,12.20
2022-08-17T02:46:14.861Z,12.77
2022-08-17T02:48:43.013Z,12.68
2022-08-17T02:51:11.330Z,11.00
2022-08-17T02:53:42.069Z,11.70
2022-08-17T02:56:11.568Z,12.17
2022-08-17T02:58:42.043Z,12.53
2022-08-17T03:01:12.667Z,12.57
2022-08-17T03:03:41.502Z,11.83
2022-08-17T03:06:12.209Z,12.57
2022-08-17T03:08:42.640Z,15.93
2022-08-17T03:11:14.532Z,12.13
2022-08-17T03:13:42.724Z,12.50
2022-08-17T03:16:11.024Z,12.40
2022-08-17T03:18:39.257Z,12.50
2022-08-17T03:21:09.181Z,12.70
2022-08-17T03:23:41.068Z,12.40
2022-08-17T03:26:15.308Z,12.30
2022-08-17T03:28:45.273Z,11.77
2022-08-17T03:31:13.380Z,12.03
2022-08-17T03:33:45.980Z,12.10
2022-08-17T03:36:17.084Z,11.90
2022-08-17T03:38:45.296Z,11.57
2022-08-17T03:41:13.969Z,11.60
2022-08-17T03:43:45.903Z,11.20
2022-08-17T03:46:35.063Z,11.50
2022-08-17T03:49:23.853Z,12.20
2022-08-17T03:52:10.142Z,11.87
2022-08-17T03:54:58.642Z,13.30
2022-08-17T03:57:27.286Z,13.40
2022-08-17T03:59:59.792Z,14.87
2022-08-17T04:02:30.840Z,14.13
2022-08-17T04:04:59.739Z,14.73
2022-08-17T04:07:32.642Z,14.17
2022-08-17T04:10:01.451Z,14.53
2022-08-17T04:12:31.371Z,14.03
2022-08-17T04:15:03.565Z,15.77
2022-08-17T04:17:31.790Z,14.00
2022-08-17T04:19:59.996Z,14.00
2022-08-17T04:22:34.253Z,12.70
2022-08-17T04:25:07.701Z,13.37
2022-08-17T04:27:38.555Z,13.13
2022-08-17T04:30:09.699Z,12.73
2022-08-17T04:33:04.099Z,14.27
2022-08-17T04:35:36.887Z,13.60
2022-08-17T04:38:05.318Z,12.77
2022-08-17T04:40:53.708Z,13.50
2022-08-17T04:43:23.668Z,12.33
2022-08-17T04:45:56.833Z,14.20
2022-08-17T04:48:35.625Z,13.07
2022-08-17T04:51:10.637Z,13.77
2022-08-17T04:53:40.397Z,13.13
2022-08-17T04:56:11.787Z,13.67
2022-08-17T04:58:45.856Z,14.60
2022-08-17T05:01:23.839Z,13.40
2022-08-17T05:03:53.686Z,13.53
2022-08-17T05:06:24.701Z,13.27
2022-08-17T05:08:53.048Z,13.17
2022-08-17T05:11:22.191Z,14.93
2022-08-17T05:13:53.441Z,13.93
2022-08-17T05:16:24.618Z,14.73
2022-08-17T05:18:53.057Z,18.00
2022-08-17T05:21:23.077Z,15.43
2022-08-17T05:23:56.193Z,15.73
2022-08-17T05:26:26.913Z,15.07
2022-08-17T05:29:02.505Z,16.43
2022-08-17T05:31:32.656Z,15.60
2022-08-17T05:34:00.934Z,15.97
2022-08-17T05:36:41.933Z,15.87
2022-08-17T05:39:16.215Z,16.07
2022-08-17T05:41:48.984Z,15.53
2022-08-17T05:44:19.433Z,15.73
2022-08-17T05:46:53.232Z,16.60
2022-08-17T05:49:28.356Z,16.33
2022-08-17T05:52:12.615Z,16.33
2022-08-17T05:54:56.005Z,17.30
2022-08-17T05:57:47.623Z,15.33
2022-08-17T06:00:30.360Z,16.20
2022-08-17T06:03:19.169Z,18.40
2022-08-17T06:06:15.339Z,18.33
2022-08-17T06:08:51.623Z,16.20
2022-08-17T06:11:26.672Z,14.73
2022-08-17T06:14:20.015Z,15.60
2022-08-17T06:16:56.743Z,15.50
2022-08-17T06:19:34.512Z,15.93
2022-08-17T06:22:05.789Z,17.20
2022-08-17T06:24:38.903Z,16.47
2022-08-17T06:27:13.235Z,16.07
2022-08-17T06:29:50.873Z,14.80
2022-08-17T06:32:21.386Z,14.43
2022-08-17T06:34:51.115Z,14.73
2022-08-17T06:37:37.210Z,14.60
2022-08-17T06:40:32.007Z,15.43
2022-08-17T06:43:14.261Z,14.17
2022-08-17T06:45:49.548Z,14.98
2022-08-17T06:48:25.109Z,12.60
2022-08-17T06:51:00.000Z,13.53
2022-08-17T06:53:37.831Z,13.10
2022-08-17T06:56:11.528Z,14.83
2022-08-17T06:58:43.340Z,14.00
2022-08-17T07:01:14.846Z,13.43
2022-08-17T07:03:53.558Z,13.63
2022-08-17T07:06:28.115Z,13.13
2022-08-17T07:09:02.592Z,13.38
2022-08-17T07:11:35.060Z,12.47
2022-08-17T07:14:17.481Z,12.65
2022-08-17T07:16:49.283Z,13.05
2022-08-17T07:19:23.569Z,14.37
2022-08-17T07:22:01.615Z,13.47
2022-08-17T07:24:39.322Z,14.02
2022-08-17T07:27:20.888Z,14.23
2022-08-17T07:29:54.699Z,13.48
2022-08-17T07:32:27.680Z,16.75
2022-08-17T07:35:12.973Z,12.90
2022-08-17T07:37:51.007Z,12.68
2022-08-17T07:40:29.685Z,12.98
2022-08-17T07:43:23.887Z,11.70
2022-08-17T07:46:23.079Z,9.82
2022-08-17T07:48:56.741Z,11.48
2022-08-17T07:51:31.227Z,9.15
2022-08-17T07:54:14.556Z,9.10
2022-08-17T07:56:46.953Z,7.72
2022-08-17T07:59:23.219Z,7.30
2022-08-17T08:02:06.146Z,7.65
2022-08-17T08:04:59.377Z,8.13
2022-08-17T08:07:32.056Z,6.97
2022-08-17T08:10:10.891Z,6.20
2022-08-17T08:12:44.407Z,6.70
2022-08-17T08:15:19.524Z,6.00
2022-08-17T08:17:52.149Z,6.13
2022-08-17T08:20:51.236Z,6.00
2022-08-17T08:23:29.546Z,6.90
2022-08-17T08:26:13.140Z,5.93
2022-08-17T08:28:52.486Z,5.03
2022-08-17T08:31:27.152Z,7.07
2022-08-17T08:34:06.523Z,5.43
2022-08-17T08:36:56.627Z,10.25
2022-08-17T08:39:44.881Z,4.97
2022-08-17T08:42:23.574Z,4.80
2022-08-17T08:45:04.756Z,7.65
2022-08-17T08:47:53.244Z,5.63
2022-08-17T08:50:37.956Z,11.38
2022-08-17T08:53:21.344Z,7.10
2022-08-17T08:55:55.597Z,6.50
2022-08-17T08:58:41.350Z,7.70
2022-08-17T09:01:19.102Z,4.85
2022-08-17T09:04:24.108Z,5.20
2022-08-17T09:07:07.245Z,6.38
2022-08-17T09:09:48.984Z,5.65
2022-08-17T09:12:25.542Z,7.43
2022-08-17T09:15:05.007Z,4.85
2022-08-17T09:17:40.937Z,9.52
2022-08-17T09:20:27.609Z,7.63
2022-08-17T09:23:03.955Z,5.60
2022-08-17T09:25:45.679Z,4.95
2022-08-17T09:28:20.245Z,7.32
2022-08-17T09:30:53.488Z,7.25
2022-08-17T09:33:26.204Z,5.07
2022-08-17T09:36:00.216Z,6.25
2022-08-17T09:38:33.210Z,4.43
2022-08-17T09:41:10.864Z,4.50
2022-08-17T09:43:45.752Z,7.32
2022-08-17T09:46:19.617Z,5.70
2022-08-17T09:48:58.039Z,6.03
2022-08-17T09:51:33.495Z,5.03
2022-08-17T09:54:34.832Z,6.38
2022-08-17T09:57:25.862Z,4.32
2022-08-17T10:00:00.247Z,3.88
2022-08-17T10:02:56.052Z,4.82
2022-08-17T10:05:30.544Z,7.93
2022-08-17T10:08:08.625Z,7.50
2022-08-17T10:10:43.111Z,3.70
2022-08-17T10:13:32.413Z,9.18
2022-08-17T10:16:15.293Z,5.38
2022-08-17T10:18:56.793Z,10.35
2022-08-17T10:21:44.075Z,9.10
2022-08-17T10:24:34.353Z,3.40
2022-08-17T10:27:05.284Z,5.32
2022-08-17T10:29:48.578Z,4.75
2022-08-17T10:32:26.531Z,5.18
2022-08-17T10:35:25.989Z,4.47
2022-08-17T10:38:30.304Z,3.80
2022-08-17T10:41:08.032Z,4.13
2022-08-17T10:43:55.840Z,5.10
2022-08-17T10:46:53.980Z,4.18
2022-08-17T10:49:29.438Z,3.33
2022-08-17T10:52:01.504Z,3.63
2022-08-17T10:55:16.652Z,4.15
2022-08-17T10:57:50.201Z,3.72
2022-08-17T11:00:54.957Z,4.63
2022-08-17T11:03:27.604Z,4.80
2022-08-17T11:06:06.876Z,4.18
2022-08-17T11:08:59.355Z,5.93
2022-08-17T11:11:54.399Z,3.40
2022-08-17T11:14:49.669Z,3.10
2022-08-17T11:17:41.509Z,3.78
2022-08-17T11:20:34.738Z,3.03
2022-08-17T11:23:37.546Z,3.47
2022-08-17T11:26:26.101Z,5.20
2022-08-17T11:29:01.405Z,3.10
2022-08-17T11:31:38.624Z,3.22
2022-08-17T11:34:15.111Z,3.50
2022-08-17T11:37:04.687Z,3.33
2022-08-17T11:39:46.519Z,4.43
2022-08-17T11:42:31.411Z,5.85
2022-08-17T11:45:03.680Z,3.50
2022-08-17T11:48:23.900Z,4.00
2022-08-17T11:51:08.489Z,3.13
2022-08-17T11:57:00.129Z,3.97
2022-08-17T12:00:03.147Z,4.50
2022-08-17T12:02:48.080Z,4.60
2022-08-17T12:05:33.180Z,4.68
2022-08-17T12:08:11.797Z,3.40
2022-08-17T12:10:55.335Z,4.38
2022-08-17T12:13:27.323Z,4.18
2022-08-17T12:16:03.503Z,3.42
2022-08-17T12:18:37.604Z,6.03
2022-08-17T12:21:18.898Z,4.25
2022-08-17T12:23:56.658Z,4.20
2022-08-17T12:26:31.337Z,3.70
2022-08-17T12:29:02.770Z,3.40
2022-08-17T12:31:37.721Z,4.30
2022-08-17T12:34:06.435Z,3.60
2022-08-17T12:36:36.353Z,4.50
2022-08-17T12:39:12.872Z,3.20
2022-08-17T12:41:46.980Z,3.42
2022-08-17T12:44:19.178Z,4.05
2022-08-17T12:46:53.739Z,3.88
2022-08-17T12:49:26.385Z,12.57
2022-08-17T12:52:06.026Z,9.90
2022-08-17T12:54:46.845Z,11.77
2022-08-17T12:57:18.038Z,7.32
2022-08-17T12:59:50.133Z,10.00
2022-08-17T13:02:29.880Z,9.23
2022-08-17T13:05:01.419Z,7.65
2022-08-17T13:07:37.284Z,6.78
2022-08-17T13:10:08.169Z,7.70
2022-08-17T13:12:37.358Z,6.78
2022-08-17T13:15:08.424Z,7.95
2022-08-17T13:17:40.544Z,9.27
2022-08-17T13:20:16.034Z,12.57
2022-08-17T13:22:45.128Z,10.77
2022-08-17T13:25:17.547Z,13.20
2022-08-17T13:27:50.844Z,10.95
2022-08-17T13:30:23.861Z,8.90
2022-08-17T13:32:57.557Z,7.53
2022-08-17T13:35:45.880Z,7.63
2022-08-17T13:38:40.531Z,6.20
2022-08-17T13:41:08.889Z,5.85
2022-08-17T13:43:45.680Z,6.38
2022-08-17T13:46:21.869Z,5.95
2022-08-17T13:49:06.218Z,5.72
2022-08-17T13:51:43.851Z,5.85
2022-08-17T13:54:26.110Z,5.13
2022-08-17T13:56:58.653Z,5.38
2022-08-17T13:59:54.348Z,5.10
2022-08-17T14:02:27.644Z,4.90
2022-08-17T14:04:59.029Z,4.63
2022-08-17T14:07:33.836Z,4.80
2022-08-17T14:10:10.393Z,5.30
2022-08-17T14:12:40.748Z,4.28
2022-08-17T14:15:10.329Z,4.03
2022-08-17T14:17:41.215Z,5.28
2022-08-17T14:20:13.580Z,5.53
2022-08-17T14:22:45.865Z,4.38
2022-08-17T14:25:19.796Z,3.80
2022-08-17T14:27:52.674Z,4.13
2022-08-17T14:30:29.647Z,4.15
2022-08-17T14:32:58.474Z,3.95
2022-08-17T14:35:29.337Z,4.35
2022-08-17T14:38:02.083Z,3.83
2022-08-17T14:40:33.407Z,3.75
2022-08-17T14:43:01.654Z,3.72
2022-08-17T14:45:33.148Z,4.05
2022-08-17T14:48:07.725Z,4.40
2022-08-17T14:50:42.569Z,6.38
2022-08-17T14:53:13.677Z,3.67
2022-08-17T14:55:41.963Z,3.60
2022-08-17T14:58:12.838Z,4.28
2022-08-17T15:00:43.679Z,4.10
2022-08-17T15:03:12.581Z,4.38
2022-08-17T15:05:44.260Z,4.70
2022-08-17T15:08:16.553Z,5.40
2022-08-17T15:10:45.013Z,4.15
2022-08-17T15:13:18.758Z,3.40
2022-08-17T15:15:47.446Z,4.20
2022-08-17T15:18:15.823Z,4.50
2022-08-17T15:20:48.611Z,4.13
2022-08-17T15:23:18.979Z,3.80
2022-08-17T15:25:52.482Z,3.17
2022-08-17T15:28:22.745Z,3.13
2022-08-17T15:30:51.366Z,3.33
2022-08-17T15:33:29.160Z,3.53
2022-08-17T15:36:01.279Z,2.45
2022-08-17T15:38:30.247Z,2.97
2022-08-17T15:40:58.670Z,3.05
2022-08-17T15:43:32.413Z,2.60
2022-08-17T15:46:02.614Z,2.85
2022-08-17T15:48:42.089Z,3.22
2022-08-17T15:51:14.820Z,2.80
2022-08-17T15:53:44.941Z,2.70
2022-08-17T15:56:15.355Z,4.43
2022-08-17T15:58:45.160Z,3.55
2022-08-17T16:01:18.432Z,3.13
2022-08-17T16:04:01.472Z,2.83
2022-08-17T16:06:37.012Z,3.13
2022-08-17T16:09:05.391Z,3.63
2022-08-17T16:11:33.635Z,5.13
2022-08-17T16:14:04.949Z,16.08
2022-08-17T16:16:33.983Z,17.15
2022-08-17T16:19:02.324Z,20.60
2022-08-17T16:21:42.765Z,24.85
2022-08-17T16:24:14.852Z,24.25
2022-08-17T16:26:43.715Z,27.30
2022-08-17T16:29:12.040Z,25.25
2022-08-17T16:31:41.782Z,24.02
2022-08-17T16:34:17.603Z,25.08
2022-08-17T16:36:55.044Z,23.83
2022-08-17T16:39:26.891Z,22.90
2022-08-17T16:41:56.070Z,24.35
2022-08-17T16:44:25.728Z,24.83
2022-08-17T16:46:54.146Z,24.27
2022-08-17T16:49:25.756Z,26.35
2022-08-17T16:52:10.116Z,23.38
2022-08-17T16:54:46.718Z,22.83
2022-08-17T16:57:18.424Z,24.10
2022-08-17T16:59:50.327Z,23.50
2022-08-17T17:02:32.379Z,23.13
2022-08-17T17:05:06.729Z,24.13
2022-08-17T17:07:56.456Z,23.40
2022-08-17T17:10:43.530Z,23.08
2022-08-17T17:13:19.086Z,23.08
2022-08-17T17:15:56.140Z,23.70
2022-08-17T17:18:35.331Z,24.08
2022-08-17T17:21:08.374Z,24.13
2022-08-17T17:23:48.306Z,25.20
2022-08-17T17:26:46.368Z,24.95
2022-08-17T17:29:47.808Z,24.45
2022-08-17T17:32:22.556Z,23.88
2022-08-17T17:34:56.194Z,25.40
2022-08-17T17:37:33.398Z,26.58
2022-08-17T17:40:06.146Z,23.15
2022-08-17T17:42:42.815Z,26.48
2022-08-17T17:45:19.849Z,24.75
2022-08-17T17:47:48.531Z,25.23
2022-08-17T17:50:18.892Z,28.35
2022-08-17T17:52:54.255Z,31.15
2022-08-17T17:55:36.548Z,25.75
2022-08-17T17:58:22.971Z,26.20
2022-08-17T18:01:00.299Z,25.95
2022-08-17T18:03:41.026Z,27.15
2022-08-17T18:06:27.673Z,28.67
2022-08-17T18:09:10.648Z,32.92
2022-08-17T18:12:02.584Z,31.70
2022-08-17T18:14:45.260Z,28.50
2022-08-17T18:17:14.263Z,25.77
2022-08-17T18:19:45.221Z,33.60
2022-08-17T18:22:18.211Z,34.72
2022-08-17T18:24:55.764Z,38.10
2022-08-17T18:27:33.383Z,36.28
2022-08-17T18:30:23.209Z,33.95
2022-08-17T18:32:51.554Z,39.22
2022-08-17T18:35:32.862Z,36.92
2022-08-17T18:38:20.431Z,38.67
2022-08-17T18:40:59.595Z,39.95
2022-08-17T18:43:44.275Z,38.92
2022-08-17T18:46:30.144Z,33.58
2022-08-17T18:49:03.234Z,30.20
2022-08-17T18:51:40.761Z,29.40
2022-08-17T18:54:18.554Z,27.30
2022-08-17T18:56:54.683Z,26.70
2022-08-17T18:59:33.929Z,24.98
2022-08-17T19:02:38.607Z,26.20
2022-08-17T19:05:13.603Z,23.98
2022-08-17T19:07:45.514Z,22.83
2022-08-17T19:10:22.560Z,22.67
2022-08-17T19:13:00.272Z,19.88
2022-08-17T19:15:36.739Z,19.95
2022-08-17T19:18:15.707Z,21.13
2022-08-17T19:20:48.712Z,20.65
2022-08-17T19:23:24.005Z,18.55
2022-08-17T19:25:55.163Z,18.98
2022-08-17T19:28:28.880Z,18.08
2022-08-17T19:30:59.403Z,18.75
2022-08-17T19:33:31.336Z,19.38
2022-08-17T19:36:06.904Z,17.30
2022-08-17T19:38:46.458Z,15.65
2022-08-17T19:41:21.720Z,17.83
2022-08-17T19:44:07.896Z,14.50
2022-08-17T19:46:49.876Z,15.38
2022-08-17T19:49:34.469Z,15.52
2022-08-17T19:52:29.192Z,14.07
2022-08-17T19:55:07.419Z,14.23
2022-08-17T19:57:50.092Z,12.85
2022-08-17T20:00:21.106Z,13.00
2022-08-17T20:02:55.056Z,11.30
2022-08-17T20:05:28.504Z,11.43
2022-08-17T20:08:01.894Z,10.93
2022-08-17T20:10:41.685Z,11.18
2022-08-17T20:13:19.106Z,9.13
2022-08-17T20:16:04.920Z,11.15
2022-08-17T20:18:37.791Z,10.02
2022-08-17T20:21:19.747Z,9.63
2022-08-17T20:23:55.090Z,9.40
2022-08-17T20:26:27.496Z,9.20
2022-08-17T20:29:37.220Z,9.60
2022-08-17T20:32:20.140Z,9.70
2022-08-17T20:35:04.114Z,10.80
2022-08-17T20:37:38.203Z,11.25
2022-08-17T20:40:28.516Z,9.65
2022-08-17T20:42:57.800Z,9.43
2022-08-17T20:46:05.789Z,10.85
2022-08-17T20:48:39.723Z,10.45
2022-08-17T20:51:19.779Z,9.40
2022-08-17T20:54:28.841Z,10.10
2022-08-17T20:57:01.448Z,11.18
2022-08-17T21:00:01.253Z,10.63
2022-08-17T21:02:32.280Z,10.80
2022-08-17T21:05:30.352Z,11.35
2022-08-17T21:08:01.878Z,12.35
2022-08-17T21:10:36.675Z,11.48
2022-08-17T21:13:55.077Z,13.05
2022-08-17T21:16:50.285Z,11.20
2022-08-17T21:20:00.527Z,11.00
2022-08-17T21:22:49.463Z,11.73
2022-08-17T21:25:33.407Z,9.73
2022-08-17T21:28:10.058Z,9.90
2022-08-17T21:30:48.033Z,10.02
2022-08-17T21:33:27.083Z,9.88
2022-08-17T21:36:26.190Z,9.00
2022-08-17T21:39:02.528Z,9.18
2022-08-17T21:41:34.806Z,10.60
2022-08-17T21:44:11.980Z,9.70
2022-08-17T21:46:46.494Z,8.90
2022-08-17T21:49:18.204Z,8.27
2022-08-17T21:51:50.386Z,8.27
2022-08-17T21:54:30.831Z,9.27
2022-08-17T21:57:00.473Z,8.83
2022-08-17T21:59:33.096Z,9.05
2022-08-17T22:02:04.086Z,8.43
2022-08-17T22:04:35.086Z,8.17
2022-08-17T22:07:06.001Z,9.20
2022-08-17T22:09:43.044Z,8.87
2022-08-17T22:12:13.760Z,8.67
2022-08-17T22:14:52.755Z,8.17
2022-08-17T22:17:24.205Z,8.97
2022-08-17T22:19:57.770Z,8.73
2022-08-17T22:22:33.305Z,8.32
2022-08-17T22:25:05.807Z,8.82
2022-08-17T22:27:55.843Z,8.40
2022-08-17T22:30:35.164Z,8.13
2022-08-17T22:33:31.278Z,8.53
2022-08-17T22:36:24.579Z,8.87
2022-08-17T22:38:55.475Z,9.00
2022-08-17T22:41:36.753Z,9.60
2022-08-17T22:44:15.411Z,8.47
2022-08-17T22:46:55.243Z,8.97
2022-08-17T22:49:29.145Z,9.30
2022-08-17T22:52:23.436Z,9.27
2022-08-17T22:55:26.395Z,10.07
2022-08-17T22:58:12.228Z,11.30
2022-08-17T23:00:45.818Z,11.23
2022-08-17T23:03:20.344Z,12.43
2022-08-17T23:05:50.147Z,13.10
2022-08-17T23:08:21.350Z,13.37
2022-08-17T23:10:52.075Z,11.37
2022-08-17T23:13:21.287Z,12.73
2022-08-17T23:15:52.016Z,14.03
2022-08-17T23:18:23.469Z,14.30
2022-08-17T23:20:51.823Z,14.33
2022-08-17T23:23:23.589Z,15.17
2022-08-17T23:25:52.087Z,14.47
2022-08-17T23:28:21.436Z,14.50
2022-08-17T23:30:49.704Z,15.07
2022-08-17T23:33:30.938Z,14.87
2022-08-17T23:36:02.253Z,15.73
2022-08-17T23:38:33.063Z,14.80
2022-08-17T23:41:09.532Z,16.67
2022-08-17T23:43:40.477Z,16.10
2022-08-17T23:46:11.971Z,17.13
2022-08-17T23:48:42.143Z,17.57
2022-08-17T23:51:13.381Z,18.50
2022-08-17T23:53:47.295Z,21.53
2022-08-17T23:56:16.162Z,20.87
2022-08-17T23:58:45.103Z,20.17
